This is the latest recevied weather packets stored in our database for station/object KC9EGS. If no packets are shown the sender has not sent any weather packets the latest 1 day(s).
| Time | Temp. | Humidity | Pressure | Rain* | Wind** | Luminosity | Snow |
|---|---|---|---|---|---|---|---|
| 1778088709 | 6.11° C | 43% | 1009.6 hPa | 0 mm | - | - | - |
| 1778083307 | 5.56° C | 38% | 1009.8 hPa | 0 mm | - | - | - |
| 1778079707 | 3.89° C | 45% | 1009.7 hPa | 0 mm | - | - | - |
| 1778078808 | 3.33° C | 49% | 1009.9 hPa | 0 mm | - | - | - |
| 1778073408 | 2.22° C | 60% | 1009.4 hPa | 0 mm | - | - | - |
| 1778072508 | 2.22° C | 60% | 1009.6 hPa | 0 mm | - | - | - |
| 1778069808 | 1.67° C | 68% | 1009.2 hPa | 0 mm | - | - | - |
| 1778068007 | 1.11° C | 71% | 1008.7 hPa | 0 mm | - | - | - |
| 1778067108 | 1.11° C | 71% | 1008.6 hPa | 0 mm | - | - | - |
| 1778066206 | 0.56° C | 70% | 1008.6 hPa | 0 mm | - | - | - |
| 1778064407 | 0.56° C | 71% | 1008.4 hPa | 0 mm | - | - | - |
| 1778063507 | 0.56° C | 72% | 1008.3 hPa | 0 mm | - | - | - |
| 1778062607 | 1.11° C | 71% | 1008.5 hPa | 0 mm | - | - | - |
| 1778060807 | 1.11° C | 71% | 1008.4 hPa | 0 mm | - | - | - |
| 1778059907 | 1.11° C | 70% | 1008.2 hPa | 0 mm | - | - | - |
| 1778058107 | 1.11° C | 69% | 1008 hPa | 0 mm | - | - | - |
| 1778057208 | 1.67° C | 69% | 1007.8 hPa | 0 mm | - | - | - |
| 1778056308 | 1.67° C | 69% | 1007.7 hPa | 0 mm | - | - | - |
| 1778055407 | 1.67° C | 69% | 1007.5 hPa | 0 mm | - | - | - |
| 1778054507 | 1.67° C | 68% | 1007.5 hPa | 0 mm | - | - | - |
| 1778053607 | 1.67° C | 69% | 1007.5 hPa | 0 mm | - | - | - |
| 1778050907 | 1.67° C | 71% | 1007.7 hPa | 0 mm | - | - | - |
| 1778050007 | 1.67° C | 70% | 1007.7 hPa | 0 mm | - | - | - |
| 1778049108 | 1.67° C | 69% | 1007.5 hPa | 0 mm | - | - | - |
| 1778048207 | 1.67° C | 69% | 1007.5 hPa | 0 mm | - | - | - |
* Rain latest hour (hover to see other rain measurements)
** Current wind speed in m/s (hover to see current wind gust speed)